CET,Max TemperatureF,Mean TemperatureF,Min TemperatureF,Max Dew PointF,MeanDew PointF,Min DewpointF,Max Humidity, Mean Humidity, Min Humidity, Max Sea Level PressureIn, Mean Sea Level PressureIn, Min Sea Level PressureIn, Max VisibilityMiles, Mean VisibilityMiles, Min VisibilityMiles, Max Wind SpeedMPH, Mean Wind SpeedMPH, Max Gust SpeedMPH,PrecipitationIn, CloudCover, Events, WindDirDegrees
2012-10-1,84,78,71,72,66,63,88,68,48,30.04,30.01,29.98,6,6,6,10,5,,0.00,5,Rain-Thunderstorm,296
2012-10-2,78,74,69,66,64,61,88,74,57,30.12,30.05,30.01,6,6,6,12,7,,0.00,3,,253
2012-10-3,77,72,66,64,60,57,88,71,50,30.15,30.11,30.09,6,6,6,12,5,,0.00,2,,257
2012-10-4,77,68,60,64,60,55,88,75,61,30.12,30.09,30.06,6,6,6,10,4,,0.00,2,,310
2012-10-5,78,70,62,64,61,59,94,75,54,30.15,30.11,30.06,6,6,4,9,3,,0.00,2,,344
2012-10-6,78,69,60,66,63,57,94,78,65,30.18,30.15,30.12,6,6,5,9,3,,0.00,2,,29
2012-10-7,75,68,60,66,63,59,100,81,65,30.12,30.06,29.98,6,6,4,9,2,,0.00,3,,203
2012-10-8,82,73,64,66,62,59,94,72,45,29.98,29.97,29.92,6,6,6,8,3,,0.00,2,,360
2012-10-9,77,70,62,66,62,57,94,75,65,29.95,29.90,29.83,6,6,4,14,4,,0.00,4,Rain,284
2012-10-10,77,72,66,66,65,63,94,82,65,29.83,29.82,29.80,6,6,4,8,4,,0.00,3,,336
2012-10-11,78,70,62,66,63,61,100,78,57,29.89,29.85,29.80,6,6,5,10,4,,0.00,2,Rain,194
2012-10-12,75,68,62,66,65,61,100,84,69,29.92,29.88,29.83,6,6,0,10,5,26,0.00,5,Rain-Thunderstorm,197
2012-10-13,73,68,62,68,64,59,100,90,73,29.92,29.88,29.83,6,6,2,6,2,15,0.00,4,Rain,222
2012-10-14,75,68,60,64,62,61,100,83,61,29.86,29.82,29.80,6,6,4,8,3,,0.00,2,,240
2012-10-15,75,68,62,66,62,57,88,76,57,29.80,29.77,29.74,6,6,6,16,6,28,0.00,4,Rain,190
2012-10-16,71,66,62,64,56,50,94,68,46,30.12,29.93,29.74,6,6,4,15,8,24,0.00,3,Rain,236
2012-10-17,75,65,55,57,55,52,88,70,50,30.21,30.17,30.15,6,6,6,7,2,,0.00,1,,355
2012-10-18,78,66,53,59,53,43,94,67,29,30.18,30.15,30.12,,,,5,3,,0.00,,,354
2012-10-19,82,68,55,61,53,48,82,62,30,30.18,30.14,30.12,,,,6,4,,0.00,,,322
2012-10-20,82,70,59,66,57,50,88,68,32,30.15,30.10,30.06,,,,6,4,,0.00,,,347
2012-10-21,80,70,59,68,60,54,94,76,42,30.06,30.04,30.01,5,5,5,8,3,,0.00,,,338
2012-10-22,78,69,60,68,63,57,100,85,61,30.06,30.03,29.98,6,5,5,9,3,,0.00,2,,179
2012-10-23,77,70,62,66,62,57,94,79,53,30.06,30.03,30.01,6,5,3,6,3,,0.00,1,,357
2012-10-24,77,67,57,64,57,50,94,74,39,30.04,29.99,29.95,6,4,3,8,4,,0.00,1,,321
2012-10-25,77,67,57,61,56,52,88,71,41,29.98,29.93,29.89,6,5,5,8,3,,0.00,1,,330
2012-10-26,73,66,59,63,59,54,94,77,65,29.92,29.80,29.56,6,6,2,12,4,,0.00,3,Rain-Thunderstorm,116
2012-10-27,71,66,62,68,64,59,94,84,69,29.59,29.45,29.36,6,5,2,20,10,33,0.00,6,Rain-Thunderstorm,216
2012-10-28,68,60,51,63,53,43,88,74,52,29.68,29.54,29.39,6,6,5,17,8,22,0.00,5,Rain-Thunderstorm,274
2012-10-29,59,52,46,50,46,43,94,82,55,29.86,29.72,29.62,6,6,2,20,8,,0.00,4,Rain-Thunderstorm,33
2012-10-30,62,52,41,48,44,37,93,72,42,29.92,29.89,29.86,6,6,6,6,4,,0.00,4,,37
2012-10-31,68,58,51,64,53,46,94,76,52,29.83,29.64,29.44,6,5,2,15,5,37,0.00,6,Rain,106